sensor_id;sensor_type;location;lat;lon;timestamp;pressure;altitude;pressure_sealevel;temperature;humidity
6030;BME280;3043;42.682;23.376;2022-08-19T00:01:43;94689.56;;;23.09;100.00
6030;BME280;3043;42.682;23.376;2022-08-19T00:04:11;94698.16;;;22.89;100.00
6030;BME280;3043;42.682;23.376;2022-08-19T00:06:38;94699.84;;;22.90;100.00
6030;BME280;3043;42.682;23.376;2022-08-19T00:09:07;94708.00;;;22.87;100.00
6030;BME280;3043;42.682;23.376;2022-08-19T00:11:33;94706.06;;;22.77;100.00
6030;BME280;3043;42.682;23.376;2022-08-19T00:13:59;94702.50;;;22.78;100.00
6030;BME280;3043;42.682;23.376;2022-08-19T00:16:25;94709.66;;;22.76;100.00
6030;BME280;3043;42.682;23.376;2022-08-19T00:18:51;94706.75;;;22.68;100.00
6030;BME280;3043;42.682;23.376;2022-08-19T00:21:16;94718.16;;;22.69;100.00
6030;BME280;3043;42.682;23.376;2022-08-19T00:23:43;94717.31;;;22.68;100.00
6030;BME280;3043;42.682;23.376;2022-08-19T00:26:10;94727.88;;;22.68;100.00
6030;BME280;3043;42.682;23.376;2022-08-19T00:28:36;94715.41;;;22.70;100.00
6030;BME280;3043;42.682;23.376;2022-08-19T00:31:06;94710.59;;;22.64;100.00
6030;BME280;3043;42.682;23.376;2022-08-19T00:33:33;94721.50;;;22.60;100.00
6030;BME280;3043;42.682;23.376;2022-08-19T00:35:59;94717.28;;;22.57;100.00
6030;BME280;3043;42.682;23.376;2022-08-19T00:38:25;94717.41;;;22.56;100.00
6030;BME280;3043;42.682;23.376;2022-08-19T00:40:51;94711.72;;;22.49;100.00
6030;BME280;3043;42.682;23.376;2022-08-19T00:43:22;94715.31;;;22.48;100.00
6030;BME280;3043;42.682;23.376;2022-08-19T00:45:48;94705.66;;;22.36;100.00
6030;BME280;3043;42.682;23.376;2022-08-19T00:48:15;94710.19;;;22.23;100.00
6030;BME280;3043;42.682;23.376;2022-08-19T00:50:42;94713.56;;;22.25;100.00
6030;BME280;3043;42.682;23.376;2022-08-19T00:53:10;94712.09;;;22.21;100.00
6030;BME280;3043;42.682;23.376;2022-08-19T00:55:37;94707.50;;;22.12;100.00
6030;BME280;3043;42.682;23.376;2022-08-19T00:58:09;94713.84;;;22.10;100.00
6030;BME280;3043;42.682;23.376;2022-08-19T01:00:35;94710.06;;;22.01;100.00
6030;BME280;3043;42.682;23.376;2022-08-19T01:03:02;94715.13;;;22.04;100.00
6030;BME280;3043;42.682;23.376;2022-08-19T01:05:28;94718.72;;;22.03;100.00
6030;BME280;3043;42.682;23.376;2022-08-19T01:07:55;94714.19;;;22.05;100.00
6030;BME280;3043;42.682;23.376;2022-08-19T01:10:24;94713.66;;;22.00;100.00
6030;BME280;3043;42.682;23.376;2022-08-19T01:12:51;94704.75;;;21.90;100.00
6030;BME280;3043;42.682;23.376;2022-08-19T01:15:29;94709.06;;;21.91;100.00
6030;BME280;3043;42.682;23.376;2022-08-19T01:17:57;94712.22;;;21.96;100.00
6030;BME280;3043;42.682;23.376;2022-08-19T01:20:24;94711.53;;;22.05;100.00
6030;BME280;3043;42.682;23.376;2022-08-19T01:22:52;94710.03;;;21.90;100.00
6030;BME280;3043;42.682;23.376;2022-08-19T01:25:21;94712.06;;;21.74;100.00
6030;BME280;3043;42.682;23.376;2022-08-19T01:27:49;94706.38;;;21.80;100.00
6030;BME280;3043;42.682;23.376;2022-08-19T01:30:18;94711.03;;;21.64;100.00
6030;BME280;3043;42.682;23.376;2022-08-19T01:32:45;94709.16;;;21.66;100.00
6030;BME280;3043;42.682;23.376;2022-08-19T01:35:12;94706.41;;;21.68;100.00
6030;BME280;3043;42.682;23.376;2022-08-19T01:37:48;94707.44;;;21.65;100.00
6030;BME280;3043;42.682;23.376;2022-08-19T01:40:14;94698.84;;;21.63;100.00
6030;BME280;3043;42.682;23.376;2022-08-19T01:42:40;94699.44;;;21.67;100.00
6030;BME280;3043;42.682;23.376;2022-08-19T01:45:06;94703.03;;;21.66;100.00
6030;BME280;3043;42.682;23.376;2022-08-19T01:47:35;94701.38;;;21.52;100.00
6030;BME280;3043;42.682;23.376;2022-08-19T01:50:00;94711.28;;;21.49;100.00
6030;BME280;3043;42.682;23.376;2022-08-19T01:52:26;94710.66;;;21.45;100.00
6030;BME280;3043;42.682;23.376;2022-08-19T01:54:52;94700.34;;;21.42;100.00
6030;BME280;3043;42.682;23.376;2022-08-19T01:57:18;94711.41;;;21.35;100.00
6030;BME280;3043;42.682;23.376;2022-08-19T01:59:44;94705.59;;;21.42;100.00
6030;BME280;3043;42.682;23.376;2022-08-19T02:02:10;94707.53;;;21.40;100.00
6030;BME280;3043;42.682;23.376;2022-08-19T02:04:36;94712.56;;;21.43;100.00
6030;BME280;3043;42.682;23.376;2022-08-19T02:07:06;94714.03;;;21.47;100.00
6030;BME280;3043;42.682;23.376;2022-08-19T02:09:32;94719.50;;;21.44;100.00
6030;BME280;3043;42.682;23.376;2022-08-19T02:11:58;94710.44;;;21.48;100.00
6030;BME280;3043;42.682;23.376;2022-08-19T02:14:23;94712.34;;;21.46;100.00
6030;BME280;3043;42.682;23.376;2022-08-19T02:16:49;94711.69;;;21.55;100.00
6030;BME280;3043;42.682;23.376;2022-08-19T02:19:14;94704.09;;;21.63;100.00
6030;BME280;3043;42.682;23.376;2022-08-19T02:21:40;94705.78;;;21.64;100.00
6030;BME280;3043;42.682;23.376;2022-08-19T02:24:05;94711.03;;;21.64;100.00
6030;BME280;3043;42.682;23.376;2022-08-19T02:26:32;94712.50;;;21.68;100.00
6030;BME280;3043;42.682;23.376;2022-08-19T02:28:57;94716.09;;;21.67;100.00
6030;BME280;3043;42.682;23.376;2022-08-19T02:31:24;94720.94;;;21.61;100.00
6030;BME280;3043;42.682;23.376;2022-08-19T02:33:50;94710.31;;;21.50;100.00
6030;BME280;3043;42.682;23.376;2022-08-19T02:36:17;94719.28;;;21.47;100.00
6030;BME280;3043;42.682;23.376;2022-08-19T02:38:43;94711.94;;;21.40;100.00
6030;BME280;3043;42.682;23.376;2022-08-19T02:41:21;94722.91;;;21.21;100.00
6030;BME280;3043;42.682;23.376;2022-08-19T02:43:47;94713.44;;;21.19;100.00
6030;BME280;3043;42.682;23.376;2022-08-19T02:46:16;94714.09;;;21.09;100.00
6030;BME280;3043;42.682;23.376;2022-08-19T02:48:43;94714.69;;;20.88;100.00
6030;BME280;3043;42.682;23.376;2022-08-19T02:51:15;94717.53;;;20.72;100.00
6030;BME280;3043;42.682;23.376;2022-08-19T02:53:41;94723.63;;;20.73;100.00
6030;BME280;3043;42.682;23.376;2022-08-19T02:56:07;94724.81;;;20.69;100.00
6030;BME280;3043;42.682;23.376;2022-08-19T02:58:33;94724.38;;;20.62;100.00
6030;BME280;3043;42.682;23.376;2022-08-19T03:00:58;94724.91;;;20.67;100.00
6030;BME280;3043;42.682;23.376;2022-08-19T03:03:24;94714.91;;;20.60;100.00
6030;BME280;3043;42.682;23.376;2022-08-19T03:05:50;94723.72;;;20.59;100.00
6030;BME280;3043;42.682;23.376;2022-08-19T03:08:15;94726.66;;;20.54;100.00
6030;BME280;3043;42.682;23.376;2022-08-19T03:10:43;94720.38;;;20.57;100.00
6030;BME280;3043;42.682;23.376;2022-08-19T03:13:11;94717.75;;;20.57;100.00
6030;BME280;3043;42.682;23.376;2022-08-19T03:15:41;94716.56;;;20.61;100.00
6030;BME280;3043;42.682;23.376;2022-08-19T03:18:07;94707.22;;;20.57;100.00
6030;BME280;3043;42.682;23.376;2022-08-19T03:20:33;94708.34;;;20.53;100.00
6030;BME280;3043;42.682;23.376;2022-08-19T03:22:58;94710.88;;;20.54;100.00
6030;BME280;3043;42.682;23.376;2022-08-19T03:25:23;94714.16;;;20.58;100.00
6030;BME280;3043;42.682;23.376;2022-08-19T03:27:49;94710.44;;;20.48;100.00
6030;BME280;3043;42.682;23.376;2022-08-19T03:30:15;94708.53;;;20.37;100.00
6030;BME280;3043;42.682;23.376;2022-08-19T03:32:40;94714.22;;;20.44;100.00
6030;BME280;3043;42.682;23.376;2022-08-19T03:35:06;94716.66;;;20.47;100.00
6030;BME280;3043;42.682;23.376;2022-08-19T03:37:32;94719.34;;;20.72;100.00
6030;BME280;3043;42.682;23.376;2022-08-19T03:39:57;94726.69;;;20.67;100.00
6030;BME280;3043;42.682;23.376;2022-08-19T03:42:22;94727.94;;;20.74;100.00
6030;BME280;3043;42.682;23.376;2022-08-19T03:44:48;94720.78;;;20.76;100.00
6030;BME280;3043;42.682;23.376;2022-08-19T03:47:13;94733.41;;;20.71;100.00
6030;BME280;3043;42.682;23.376;2022-08-19T03:49:42;94740.69;;;20.80;100.00
6030;BME280;3043;42.682;23.376;2022-08-19T03:52:07;94738.47;;;20.86;100.00
6030;BME280;3043;42.682;23.376;2022-08-19T03:54:33;94740.94;;;21.02;100.00
6030;BME280;3043;42.682;23.376;2022-08-19T03:56:59;94740.84;;;21.16;100.00
6030;BME280;3043;42.682;23.376;2022-08-19T03:59:27;94743.13;;;21.33;100.00
6030;BME280;3043;42.682;23.376;2022-08-19T04:01:55;94743.50;;;21.65;100.00
6030;BME280;3043;42.682;23.376;2022-08-19T04:04:22;94757.47;;;21.90;100.00
6030;BME280;3043;42.682;23.376;2022-08-19T04:06:48;94758.09;;;22.17;100.00
6030;BME280;3043;42.682;23.376;2022-08-19T04:09:14;94761.94;;;22.60;100.00
6030;BME280;3043;42.682;23.376;2022-08-19T04:11:42;94752.75;;;22.88;100.00
6030;BME280;3043;42.682;23.376;2022-08-19T04:14:11;94758.13;;;23.21;100.00
6030;BME280;3043;42.682;23.376;2022-08-19T04:16:36;94762.84;;;23.62;100.00
6030;BME280;3043;42.682;23.376;2022-08-19T04:19:03;94760.88;;;24.08;100.00
6030;BME280;3043;42.682;23.376;2022-08-19T04:21:30;94769.66;;;24.51;100.00
6030;BME280;3043;42.682;23.376;2022-08-19T04:23:57;94771.41;;;24.93;100.00
6030;BME280;3043;42.682;23.376;2022-08-19T04:26:26;94769.28;;;25.28;100.00
6030;BME280;3043;42.682;23.376;2022-08-19T04:28:52;94778.03;;;25.70;100.00
6030;BME280;3043;42.682;23.376;2022-08-19T04:31:21;94779.41;;;25.94;100.00
6030;BME280;3043;42.682;23.376;2022-08-19T04:33:47;94773.72;;;25.99;100.00
6030;BME280;3043;42.682;23.376;2022-08-19T04:36:17;94773.66;;;26.29;100.00
6030;BME280;3043;42.682;23.376;2022-08-19T04:38:45;94778.34;;;26.75;100.00
6030;BME280;3043;42.682;23.376;2022-08-19T04:41:10;94774.72;;;26.95;100.00
6030;BME280;3043;42.682;23.376;2022-08-19T04:43:54;94778.34;;;27.32;97.67
6030;BME280;3043;42.682;23.376;2022-08-19T04:46:20;94780.25;;;27.58;94.53
6030;BME280;3043;42.682;23.376;2022-08-19T04:48:46;94774.94;;;27.49;95.90
6030;BME280;3043;42.682;23.376;2022-08-19T04:51:11;94769.63;;;27.95;91.19
6030;BME280;3043;42.682;23.376;2022-08-19T04:53:39;94772.31;;;27.95;90.99
6030;BME280;3043;42.682;23.376;2022-08-19T04:56:13;94776.69;;;27.77;91.88
6030;BME280;3043;42.682;23.376;2022-08-19T04:58:41;94773.84;;;28.15;87.87
6030;BME280;3043;42.682;23.376;2022-08-19T05:01:08;94781.84;;;28.42;87.16
6030;BME280;3043;42.682;23.376;2022-08-19T05:03:35;94784.94;;;28.82;82.71
6030;BME280;3043;42.682;23.376;2022-08-19T05:06:06;94785.81;;;29.18;78.12
6030;BME280;3043;42.682;23.376;2022-08-19T05:08:33;94786.16;;;29.84;74.11
6030;BME280;3043;42.682;23.376;2022-08-19T05:10:59;94787.66;;;29.86;74.75
6030;BME280;3043;42.682;23.376;2022-08-19T05:13:24;94794.69;;;30.21;70.51
6030;BME280;3043;42.682;23.376;2022-08-19T05:15:57;94784.59;;;30.90;65.66
6030;BME280;3043;42.682;23.376;2022-08-19T05:18:24;94789.84;;;31.32;63.18
6030;BME280;3043;42.682;23.376;2022-08-19T05:21:10;94782.44;;;31.18;62.49
6030;BME280;3043;42.682;23.376;2022-08-19T05:23:55;94782.59;;;31.72;59.26
6030;BME280;3043;42.682;23.376;2022-08-19T05:26:20;94782.19;;;32.23;56.35
6030;BME280;3043;42.682;23.376;2022-08-19T05:28:46;94783.56;;;32.11;56.71
6030;BME280;3043;42.682;23.376;2022-08-19T05:31:12;94787.19;;;32.26;56.15
6030;BME280;3043;42.682;23.376;2022-08-19T05:33:37;94781.44;;;32.45;53.75
6030;BME280;3043;42.682;23.376;2022-08-19T05:36:05;94787.91;;;32.12;54.29
6030;BME280;3043;42.682;23.376;2022-08-19T05:38:33;94791.78;;;32.56;54.21
6030;BME280;3043;42.682;23.376;2022-08-19T05:40:58;94797.78;;;33.20;51.06
6030;BME280;3043;42.682;23.376;2022-08-19T05:43:23;94795.28;;;33.63;48.75
6030;BME280;3043;42.682;23.376;2022-08-19T05:45:49;94798.44;;;34.04;47.32
6030;BME280;3043;42.682;23.376;2022-08-19T05:48:15;94797.31;;;34.13;46.05
6030;BME280;3043;42.682;23.376;2022-08-19T05:50:46;94801.09;;;34.91;44.58
6030;BME280;3043;42.682;23.376;2022-08-19T05:53:12;94789.75;;;34.60;44.84
6030;BME280;3043;42.682;23.376;2022-08-19T05:55:37;94797.38;;;34.42;45.34
6030;BME280;3043;42.682;23.376;2022-08-19T05:58:06;94797.31;;;35.00;43.38
6030;BME280;3043;42.682;23.376;2022-08-19T06:00:33;94796.97;;;35.31;41.80
6030;BME280;3043;42.682;23.376;2022-08-19T06:02:59;94800.75;;;35.78;40.61
6030;BME280;3043;42.682;23.376;2022-08-19T06:05:29;94795.00;;;35.18;43.42
6030;BME280;3043;42.682;23.376;2022-08-19T06:07:55;94798.47;;;35.33;42.04
6030;BME280;3043;42.682;23.376;2022-08-19T06:10:20;94796.56;;;35.48;41.72
6030;BME280;3043;42.682;23.376;2022-08-19T06:12:47;94801.47;;;36.15;39.79
6030;BME280;3043;42.682;23.376;2022-08-19T06:15:14;94811.06;;;36.24;39.26
6030;BME280;3043;42.682;23.376;2022-08-19T06:17:41;94794.28;;;36.22;39.31
6030;BME280;3043;42.682;23.376;2022-08-19T06:20:09;94810.66;;;36.48;38.96
6030;BME280;3043;42.682;23.376;2022-08-19T06:22:44;94811.91;;;37.59;36.98
6030;BME280;3043;42.682;23.376;2022-08-19T06:25:10;94814.38;;;36.81;37.59
6030;BME280;3043;42.682;23.376;2022-08-19T06:27:36;94804.28;;;37.02;36.58
6030;BME280;3043;42.682;23.376;2022-08-19T06:30:03;94808.09;;;37.21;36.48
6030;BME280;3043;42.682;23.376;2022-08-19T06:32:28;94812.97;;;37.58;36.00
6030;BME280;3043;42.682;23.376;2022-08-19T06:34:54;94810.69;;;37.68;36.02
6030;BME280;3043;42.682;23.376;2022-08-19T06:37:20;94818.22;;;38.31;34.34
6030;BME280;3043;42.682;23.376;2022-08-19T06:39:47;94809.44;;;37.64;35.84
6030;BME280;3043;42.682;23.376;2022-08-19T06:42:12;94798.25;;;37.67;35.79
6030;BME280;3043;42.682;23.376;2022-08-19T06:44:42;94804.41;;;37.41;35.82
6030;BME280;3043;42.682;23.376;2022-08-19T06:47:11;94806.16;;;37.75;35.73
6030;BME280;3043;42.682;23.376;2022-08-19T06:49:37;94806.97;;;37.69;36.49
6030;BME280;3043;42.682;23.376;2022-08-19T06:52:03;94805.47;;;38.64;33.70
6030;BME280;3043;42.682;23.376;2022-08-19T06:54:29;94804.03;;;39.57;32.25
6030;BME280;3043;42.682;23.376;2022-08-19T06:56:59;94814.38;;;38.71;33.36
6030;BME280;3043;42.682;23.376;2022-08-19T06:59:27;94816.56;;;38.04;35.53
6030;BME280;3043;42.682;23.376;2022-08-19T07:01:55;94814.00;;;38.61;33.75
6030;BME280;3043;42.682;23.376;2022-08-19T07:04:24;94819.38;;;38.74;33.53
6030;BME280;3043;42.682;23.376;2022-08-19T07:06:55;94824.31;;;39.79;31.37
6030;BME280;3043;42.682;23.376;2022-08-19T07:09:21;94818.84;;;39.17;33.09
6030;BME280;3043;42.682;23.376;2022-08-19T07:11:52;94818.53;;;38.80;33.03
6030;BME280;3043;42.682;23.376;2022-08-19T07:14:20;94823.19;;;39.18;32.56
6030;BME280;3043;42.682;23.376;2022-08-19T07:16:49;94824.47;;;40.15;30.71
6030;BME280;3043;42.682;23.376;2022-08-19T07:19:16;94820.22;;;39.70;31.55
6030;BME280;3043;42.682;23.376;2022-08-19T07:21:42;94819.50;;;39.50;32.02
6030;BME280;3043;42.682;23.376;2022-08-19T07:24:08;94809.47;;;39.88;32.53
6030;BME280;3043;42.682;23.376;2022-08-19T07:26:40;94821.66;;;40.89;30.43
6030;BME280;3043;42.682;23.376;2022-08-19T07:29:06;94819.38;;;41.69;29.25
6030;BME280;3043;42.682;23.376;2022-08-19T07:31:32;94803.31;;;41.02;29.52
6030;BME280;3043;42.682;23.376;2022-08-19T07:34:03;94809.78;;;41.37;28.78
6030;BME280;3043;42.682;23.376;2022-08-19T07:36:34;94814.22;;;41.20;29.00
6030;BME280;3043;42.682;23.376;2022-08-19T07:39:03;94819.75;;;41.61;29.05
6030;BME280;3043;42.682;23.376;2022-08-19T07:41:30;94812.63;;;41.90;28.18
6030;BME280;3043;42.682;23.376;2022-08-19T07:43:58;94810.25;;;41.93;28.36
6030;BME280;3043;42.682;23.376;2022-08-19T07:46:30;94814.69;;;41.76;28.43
6030;BME280;3043;42.682;23.376;2022-08-19T07:48:56;94815.09;;;41.50;28.26
6030;BME280;3043;42.682;23.376;2022-08-19T07:51:23;94815.69;;;41.93;28.51
6030;BME280;3043;42.682;23.376;2022-08-19T07:53:49;94814.22;;;42.44;27.15
6030;BME280;3043;42.682;23.376;2022-08-19T07:56:18;94820.50;;;42.56;27.03
6030;BME280;3043;42.682;23.376;2022-08-19T07:58:45;94814.56;;;42.59;27.12
6030;BME280;3043;42.682;23.376;2022-08-19T08:01:15;94814.84;;;42.46;27.09
6030;BME280;3043;42.682;23.376;2022-08-19T08:03:41;94817.84;;;43.18;26.39
6030;BME280;3043;42.682;23.376;2022-08-19T08:06:25;94817.84;;;43.30;26.47
6030;BME280;3043;42.682;23.376;2022-08-19T08:09:09;94819.72;;;43.29;26.03
6030;BME280;3043;42.682;23.376;2022-08-19T08:11:46;94818.63;;;43.42;25.99
6030;BME280;3043;42.682;23.376;2022-08-19T08:14:27;94805.78;;;43.42;26.09
6030;BME280;3043;42.682;23.376;2022-08-19T08:16:53;94811.53;;;43.69;26.01
6030;BME280;3043;42.682;23.376;2022-08-19T08:19:21;94802.59;;;43.73;25.62
6030;BME280;3043;42.682;23.376;2022-08-19T08:21:48;94796.25;;;43.68;25.51
6030;BME280;3043;42.682;23.376;2022-08-19T08:24:15;94806.34;;;43.28;25.95
6030;BME280;3043;42.682;23.376;2022-08-19T08:26:40;94801.66;;;43.40;26.30
6030;BME280;3043;42.682;23.376;2022-08-19T08:29:07;94793.41;;;44.08;25.32
6030;BME280;3043;42.682;23.376;2022-08-19T08:31:36;94795.22;;;44.52;25.21
6030;BME280;3043;42.682;23.376;2022-08-19T08:34:02;94799.75;;;44.79;24.67
6030;BME280;3043;42.682;23.376;2022-08-19T08:36:28;94800.41;;;44.32;24.50
6030;BME280;3043;42.682;23.376;2022-08-19T08:38:54;94797.69;;;44.53;24.39
6030;BME280;3043;42.682;23.376;2022-08-19T08:41:37;94797.28;;;44.78;24.81
6030;BME280;3043;42.682;23.376;2022-08-19T08:44:06;94790.28;;;44.32;25.39
6030;BME280;3043;42.682;23.376;2022-08-19T08:46:44;94792.47;;;44.30;24.29
6030;BME280;3043;42.682;23.376;2022-08-19T08:52:03;94785.22;;;44.95;24.21
6030;BME280;3043;42.682;23.376;2022-08-19T08:54:40;94777.22;;;45.54;23.21
6030;BME280;3043;42.682;23.376;2022-08-19T08:57:14;94779.78;;;45.39;22.87
6030;BME280;3043;42.682;23.376;2022-08-19T08:59:43;94772.88;;;44.71;23.35
6030;BME280;3043;42.682;23.376;2022-08-19T09:02:11;94776.59;;;44.49;23.73
6030;BME280;3043;42.682;23.376;2022-08-19T09:04:37;94776.75;;;45.13;23.25
6030;BME280;3043;42.682;23.376;2022-08-19T09:09:45;94760.13;;;44.77;22.92
6030;BME280;3043;42.682;23.376;2022-08-19T09:14:58;94767.94;;;45.55;21.95
6030;BME280;3043;42.682;23.376;2022-08-19T09:17:29;94764.59;;;45.04;21.70
6030;BME280;3043;42.682;23.376;2022-08-19T09:20:21;94762.56;;;45.65;21.96
6030;BME280;3043;42.682;23.376;2022-08-19T09:22:47;94752.94;;;45.84;21.32
6030;BME280;3043;42.682;23.376;2022-08-19T09:25:17;94759.31;;;46.26;20.65
6030;BME280;3043;42.682;23.376;2022-08-19T09:27:44;94762.06;;;46.26;21.14
6030;BME280;3043;42.682;23.376;2022-08-19T09:30:22;94764.72;;;46.52;20.16
6030;BME280;3043;42.682;23.376;2022-08-19T09:32:49;94758.22;;;47.15;19.29
6030;BME280;3043;42.682;23.376;2022-08-19T09:35:18;94752.97;;;46.52;19.75
6030;BME280;3043;42.682;23.376;2022-08-19T09:37:43;94745.47;;;46.84;19.26
6030;BME280;3043;42.682;23.376;2022-08-19T09:40:10;94746.97;;;45.65;20.36
6030;BME280;3043;42.682;23.376;2022-08-19T09:42:37;94746.38;;;45.85;19.83
6030;BME280;3043;42.682;23.376;2022-08-19T09:45:02;94743.78;;;45.47;20.66
6030;BME280;3043;42.682;23.376;2022-08-19T09:47:29;94744.53;;;45.69;19.43
6030;BME280;3043;42.682;23.376;2022-08-19T09:49:54;94747.09;;;46.07;18.31
6030;BME280;3043;42.682;23.376;2022-08-19T09:52:20;94748.50;;;45.78;18.68
6030;BME280;3043;42.682;23.376;2022-08-19T09:54:45;94741.66;;;45.05;18.79
6030;BME280;3043;42.682;23.376;2022-08-19T09:57:11;94734.94;;;44.20;19.65
6030;BME280;3043;42.682;23.376;2022-08-19T09:59:36;94723.50;;;44.23;20.17
6030;BME280;3043;42.682;23.376;2022-08-19T10:02:02;94727.25;;;43.84;19.76
6030;BME280;3043;42.682;23.376;2022-08-19T10:04:27;94725.50;;;43.78;19.71
6030;BME280;3043;42.682;23.376;2022-08-19T10:07:13;94719.88;;;42.84;20.72
6030;BME280;3043;42.682;23.376;2022-08-19T10:09:38;94712.31;;;43.42;20.76
6030;BME280;3043;42.682;23.376;2022-08-19T10:12:06;94709.22;;;43.83;20.41
6030;BME280;3043;42.682;23.376;2022-08-19T10:14:32;94710.03;;;43.67;20.76
6030;BME280;3043;42.682;23.376;2022-08-19T10:16:57;94712.91;;;43.16;20.95
6030;BME280;3043;42.682;23.376;2022-08-19T10:19:25;94700.06;;;43.28;20.64
6030;BME280;3043;42.682;23.376;2022-08-19T10:21:52;94712.91;;;43.16;21.02
6030;BME280;3043;42.682;23.376;2022-08-19T10:24:17;94709.72;;;42.68;21.41
6030;BME280;3043;42.682;23.376;2022-08-19T10:26:43;94703.84;;;42.48;22.12
6030;BME280;3043;42.682;23.376;2022-08-19T10:29:11;94698.06;;;42.33;21.75
6030;BME280;3043;42.682;23.376;2022-08-19T10:31:37;94703.13;;;41.94;22.20
6030;BME280;3043;42.682;23.376;2022-08-19T10:34:03;94695.06;;;41.99;22.01
6030;BME280;3043;42.682;23.376;2022-08-19T10:36:32;94691.06;;;41.90;22.21
6030;BME280;3043;42.682;23.376;2022-08-19T10:39:01;94684.28;;;41.17;22.71
6030;BME280;3043;42.682;23.376;2022-08-19T10:41:30;94687.41;;;41.32;23.06
6030;BME280;3043;42.682;23.376;2022-08-19T10:43:58;94681.44;;;40.94;23.27
6030;BME280;3043;42.682;23.376;2022-08-19T10:46:25;94686.75;;;40.89;23.47
6030;BME280;3043;42.682;23.376;2022-08-19T10:48:52;94682.22;;;40.83;22.96
6030;BME280;3043;42.682;23.376;2022-08-19T10:51:18;94679.97;;;40.08;23.89
6030;BME280;3043;42.682;23.376;2022-08-19T10:54:03;94665.63;;;40.01;23.99
6030;BME280;3043;42.682;23.376;2022-08-19T10:56:29;94668.06;;;40.45;23.53
6030;BME280;3043;42.682;23.376;2022-08-19T10:59:14;94679.31;;;40.96;23.65
6030;BME280;3043;42.682;23.376;2022-08-19T11:01:42;94668.00;;;41.17;22.97
6030;BME280;3043;42.682;23.376;2022-08-19T11:04:08;94667.88;;;40.94;23.72
6030;BME280;3043;42.682;23.376;2022-08-19T11:06:37;94661.44;;;40.77;23.76
6030;BME280;3043;42.682;23.376;2022-08-19T11:09:04;94671.69;;;40.57;24.01
6030;BME280;3043;42.682;23.376;2022-08-19T11:11:31;94666.94;;;40.71;24.67
6030;BME280;3043;42.682;23.376;2022-08-19T11:13:57;94666.41;;;40.80;24.75
6030;BME280;3043;42.682;23.376;2022-08-19T11:16:26;94659.72;;;40.94;24.60
6030;BME280;3043;42.682;23.376;2022-08-19T11:18:56;94653.78;;;40.86;24.49
6030;BME280;3043;42.682;23.376;2022-08-19T11:21:24;94666.50;;;40.37;24.14
6030;BME280;3043;42.682;23.376;2022-08-19T11:23:53;94653.00;;;40.13;24.96
6030;BME280;3043;42.682;23.376;2022-08-19T11:26:20;94655.41;;;40.21;25.24
6030;BME280;3043;42.682;23.376;2022-08-19T11:28:47;94654.66;;;40.50;23.87
6030;BME280;3043;42.682;23.376;2022-08-19T11:31:15;94651.16;;;40.25;24.37
6030;BME280;3043;42.682;23.376;2022-08-19T11:33:41;94651.28;;;40.18;24.94
6030;BME280;3043;42.682;23.376;2022-08-19T11:36:07;94647.88;;;40.23;25.05
6030;BME280;3043;42.682;23.376;2022-08-19T11:38:34;94643.91;;;39.83;26.00
6030;BME280;3043;42.682;23.376;2022-08-19T11:41:04;94641.75;;;39.91;25.93
6030;BME280;3043;42.682;23.376;2022-08-19T11:43:31;94634.00;;;39.95;26.23
6030;BME280;3043;42.682;23.376;2022-08-19T11:45:57;94637.16;;;40.10;25.29
6030;BME280;3043;42.682;23.376;2022-08-19T11:48:24;94636.88;;;40.00;25.18
6030;BME280;3043;42.682;23.376;2022-08-19T11:50:51;94622.94;;;39.72;25.17
6030;BME280;3043;42.682;23.376;2022-08-19T11:53:18;94625.88;;;39.70;25.29
6030;BME280;3043;42.682;23.376;2022-08-19T11:55:48;94633.72;;;39.29;25.79
6030;BME280;3043;42.682;23.376;2022-08-19T11:58:15;94633.00;;;39.16;25.50
6030;BME280;3043;42.682;23.376;2022-08-19T12:00:42;94627.28;;;39.06;25.88
6030;BME280;3043;42.682;23.376;2022-08-19T12:03:08;94619.81;;;38.94;25.91
6030;BME280;3043;42.682;23.376;2022-08-19T12:05:36;94621.47;;;38.95;26.44
6030;BME280;3043;42.682;23.376;2022-08-19T12:08:02;94616.59;;;38.79;26.38
6030;BME280;3043;42.682;23.376;2022-08-19T12:10:28;94601.13;;;38.55;26.26
6030;BME280;3043;42.682;23.376;2022-08-19T12:12:53;94602.75;;;38.12;26.97
6030;BME280;3043;42.682;23.376;2022-08-19T12:15:18;94605.69;;;38.04;26.83
6030;BME280;3043;42.682;23.376;2022-08-19T12:17:44;94604.09;;;37.77;27.90
6030;BME280;3043;42.682;23.376;2022-08-19T12:20:11;94601.19;;;37.79;28.55
6030;BME280;3043;42.682;23.376;2022-08-19T12:22:39;94592.00;;;37.86;28.62
6030;BME280;3043;42.682;23.376;2022-08-19T12:25:07;94588.94;;;37.76;29.29
6030;BME280;3043;42.682;23.376;2022-08-19T12:27:32;94579.97;;;37.89;27.98
6030;BME280;3043;42.682;23.376;2022-08-19T12:29:58;94581.63;;;37.83;27.88
6030;BME280;3043;42.682;23.376;2022-08-19T12:32:25;94580.97;;;37.94;27.67
6030;BME280;3043;42.682;23.376;2022-08-19T12:34:51;94582.88;;;37.87;28.26
6030;BME280;3043;42.682;23.376;2022-08-19T12:37:16;94577.06;;;37.77;27.86
6030;BME280;3043;42.682;23.376;2022-08-19T12:39:43;94570.09;;;37.30;27.72
6030;BME280;3043;42.682;23.376;2022-08-19T12:42:13;94575.91;;;36.82;28.55
6030;BME280;3043;42.682;23.376;2022-08-19T12:44:40;94565.47;;;36.46;30.03
6030;BME280;3043;42.682;23.376;2022-08-19T12:47:06;94567.91;;;36.35;29.72
6030;BME280;3043;42.682;23.376;2022-08-19T12:49:33;94556.59;;;35.99;30.06
6030;BME280;3043;42.682;23.376;2022-08-19T12:52:02;94553.50;;;35.67;30.26
6030;BME280;3043;42.682;23.376;2022-08-19T12:54:29;94552.81;;;35.18;30.74
6030;BME280;3043;42.682;23.376;2022-08-19T12:56:56;94560.88;;;35.18;31.25
6030;BME280;3043;42.682;23.376;2022-08-19T12:59:22;94559.19;;;35.17;31.16
6030;BME280;3043;42.682;23.376;2022-08-19T13:01:48;94548.22;;;35.12;31.60
6030;BME280;3043;42.682;23.376;2022-08-19T13:04:13;94549.78;;;35.00;32.23
6030;BME280;3043;42.682;23.376;2022-08-19T13:06:39;94550.41;;;35.02;32.11
6030;BME280;3043;42.682;23.376;2022-08-19T13:09:05;94546.06;;;35.01;32.13
6030;BME280;3043;42.682;23.376;2022-08-19T13:11:30;94553.19;;;35.15;31.67
6030;BME280;3043;42.682;23.376;2022-08-19T13:14:01;94546.44;;;34.98;31.47
6030;BME280;3043;42.682;23.376;2022-08-19T13:16:28;94546.28;;;34.85;31.91
6030;BME280;3043;42.682;23.376;2022-08-19T13:18:55;94546.97;;;34.87;31.75